sensor_id;sensor_type;location;lat;lon;timestamp;temperature;humidity
51837;DHT22;38941;53.254;6.600;2023-02-15T00:00:30;3.70;99.90
51837;DHT22;38941;53.254;6.600;2023-02-15T00:02:30;3.70;99.90
51837;DHT22;38941;53.254;6.600;2023-02-15T00:04:32;3.80;99.90
51837;DHT22;38941;53.254;6.600;2023-02-15T00:06:55;4.10;99.90
51837;DHT22;38941;53.254;6.600;2023-02-15T00:09:09;3.00;99.90
51837;DHT22;38941;53.254;6.600;2023-02-15T00:11:18;4.70;99.90
51837;DHT22;38941;53.254;6.600;2023-02-15T00:13:48;3.90;99.90
51837;DHT22;38941;53.254;6.600;2023-02-15T00:16:01;2.30;99.90
51837;DHT22;38941;53.254;6.600;2023-02-15T00:18:03;4.60;99.90
51837;DHT22;38941;53.254;6.600;2023-02-15T00:20:20;4.00;99.90
51837;DHT22;38941;53.254;6.600;2023-02-15T00:22:45;4.00;99.90
51837;DHT22;38941;53.254;6.600;2023-02-15T00:24:47;3.60;99.90
51837;DHT22;38941;53.254;6.600;2023-02-15T00:26:51;3.30;99.90
51837;DHT22;38941;53.254;6.600;2023-02-15T00:28:55;4.00;99.90
51837;DHT22;38941;53.254;6.600;2023-02-15T00:31:11;3.90;99.90
51837;DHT22;38941;53.254;6.600;2023-02-15T00:33:29;3.60;99.90
51837;DHT22;38941;53.254;6.600;2023-02-15T00:35:41;2.50;99.90
51837;DHT22;38941;53.254;6.600;2023-02-15T00:38:08;3.60;99.90
51837;DHT22;38941;53.254;6.600;2023-02-15T00:40:09;3.90;99.90
51837;DHT22;38941;53.254;6.600;2023-02-15T00:42:17;2.70;99.90
51837;DHT22;38941;53.254;6.600;2023-02-15T00:44:31;4.40;99.90
51837;DHT22;38941;53.254;6.600;2023-02-15T00:46:35;3.20;99.90
51837;DHT22;38941;53.254;6.600;2023-02-15T00:48:45;3.40;99.90
51837;DHT22;38941;53.254;6.600;2023-02-15T00:50:52;3.70;99.90
51837;DHT22;38941;53.254;6.600;2023-02-15T00:52:55;3.30;99.90
51837;DHT22;38941;53.254;6.600;2023-02-15T00:54:55;3.60;99.90
51837;DHT22;38941;53.254;6.600;2023-02-15T00:56:57;4.10;99.90
51837;DHT22;38941;53.254;6.600;2023-02-15T00:59:15;4.10;99.90
51837;DHT22;38941;53.254;6.600;2023-02-15T01:01:27;3.60;99.90
51837;DHT22;38941;53.254;6.600;2023-02-15T01:03:29;3.30;99.90
51837;DHT22;38941;53.254;6.600;2023-02-15T01:05:31;3.70;99.90
51837;DHT22;38941;53.254;6.600;2023-02-15T01:07:51;3.60;99.90
51837;DHT22;38941;53.254;6.600;2023-02-15T01:09:52;3.30;99.90
51837;DHT22;38941;53.254;6.600;2023-02-15T01:15:09;4.40;99.90
51837;DHT22;38941;53.254;6.600;2023-02-15T01:17:35;3.10;99.90
51837;DHT22;38941;53.254;6.600;2023-02-15T01:23:02;3.20;99.90
51837;DHT22;38941;53.254;6.600;2023-02-15T01:28:17;1.20;99.90
51837;DHT22;38941;53.254;6.600;2023-02-15T01:30:18;3.80;99.90
51837;DHT22;38941;53.254;6.600;2023-02-15T01:32:26;3.50;99.90
51837;DHT22;38941;53.254;6.600;2023-02-15T01:34:29;2.70;99.90
51837;DHT22;38941;53.254;6.600;2023-02-15T01:36:30;3.60;99.90
51837;DHT22;38941;53.254;6.600;2023-02-15T01:38:32;3.50;99.90
51837;DHT22;38941;53.254;6.600;2023-02-15T01:40:35;3.10;99.90
51837;DHT22;38941;53.254;6.600;2023-02-15T01:42:36;3.80;99.90
51837;DHT22;38941;53.254;6.600;2023-02-15T01:44:53;4.90;99.90
51837;DHT22;38941;53.254;6.600;2023-02-15T01:47:01;4.00;99.90
51837;DHT22;38941;53.254;6.600;2023-02-15T01:49:25;2.70;99.90
51837;DHT22;38941;53.254;6.600;2023-02-15T01:51:33;3.00;99.90
51837;DHT22;38941;53.254;6.600;2023-02-15T01:53:56;3.00;99.90
51837;DHT22;38941;53.254;6.600;2023-02-15T01:56:19;4.20;99.90
51837;DHT22;38941;53.254;6.600;2023-02-15T02:01:38;2.90;99.90
51837;DHT22;38941;53.254;6.600;2023-02-15T02:04:09;3.00;99.90
51837;DHT22;38941;53.254;6.600;2023-02-15T02:06:13;3.10;99.90
51837;DHT22;38941;53.254;6.600;2023-02-15T02:08:14;2.60;99.90
51837;DHT22;38941;53.254;6.600;2023-02-15T02:10:29;3.20;99.90
51837;DHT22;38941;53.254;6.600;2023-02-15T02:12:37;3.10;99.90
51837;DHT22;38941;53.254;6.600;2023-02-15T02:14:52;2.60;99.90
51837;DHT22;38941;53.254;6.600;2023-02-15T02:27:29;1.80;99.90
51837;DHT22;38941;53.254;6.600;2023-02-15T02:32:30;2.30;99.90
51837;DHT22;38941;53.254;6.600;2023-02-15T02:42:42;3.00;99.90
51837;DHT22;38941;53.254;6.600;2023-02-15T02:45:00;2.30;99.90
51837;DHT22;38941;53.254;6.600;2023-02-15T02:49:11;1.20;99.90
51837;DHT22;38941;53.254;6.600;2023-02-15T02:51:21;2.20;99.90
51837;DHT22;38941;53.254;6.600;2023-02-15T02:53:23;4.20;99.90
51837;DHT22;38941;53.254;6.600;2023-02-15T02:58:08;0.80;99.90
51837;DHT22;38941;53.254;6.600;2023-02-15T03:00:19;1.80;99.90
51837;DHT22;38941;53.254;6.600;2023-02-15T03:02:24;1.40;99.90
51837;DHT22;38941;53.254;6.600;2023-02-15T03:04:51;2.50;99.90
51837;DHT22;38941;53.254;6.600;2023-02-15T03:07:02;2.40;99.90
51837;DHT22;38941;53.254;6.600;2023-02-15T03:11:26;1.80;99.90
51837;DHT22;38941;53.254;6.600;2023-02-15T03:13:29;0.20;99.90
51837;DHT22;38941;53.254;6.600;2023-02-15T03:15:42;1.80;99.90
51837;DHT22;38941;53.254;6.600;2023-02-15T03:18:03;1.80;99.90
51837;DHT22;38941;53.254;6.600;2023-02-15T03:20:17;1.70;99.90
51837;DHT22;38941;53.254;6.600;2023-02-15T03:22:33;0.80;99.90
51837;DHT22;38941;53.254;6.600;2023-02-15T03:24:44;1.70;99.90
51837;DHT22;38941;53.254;6.600;2023-02-15T03:26:58;2.10;99.90
51837;DHT22;38941;53.254;6.600;2023-02-15T03:29:04;2.00;99.90
51837;DHT22;38941;53.254;6.600;2023-02-15T03:31:16;1.50;99.90
51837;DHT22;38941;53.254;6.600;2023-02-15T03:33:24;3.00;99.90
51837;DHT22;38941;53.254;6.600;2023-02-15T03:35:42;1.50;99.90
51837;DHT22;38941;53.254;6.600;2023-02-15T03:37:49;0.00;99.90
51837;DHT22;38941;53.254;6.600;2023-02-15T03:42:30;1.80;99.90
51837;DHT22;38941;53.254;6.600;2023-02-15T03:47:15;2.00;99.90
51837;DHT22;38941;53.254;6.600;2023-02-15T03:49:30;3.20;99.90
51837;DHT22;38941;53.254;6.600;2023-02-15T03:51:46;1.60;99.90
51837;DHT22;38941;53.254;6.600;2023-02-15T03:53:50;-0.20;99.90
51837;DHT22;38941;53.254;6.600;2023-02-15T03:55:59;2.50;99.90
51837;DHT22;38941;53.254;6.600;2023-02-15T03:58:01;1.70;99.90
51837;DHT22;38941;53.254;6.600;2023-02-15T04:00:25;1.60;99.90
51837;DHT22;38941;53.254;6.600;2023-02-15T04:05:14;0.60;99.90
51837;DHT22;38941;53.254;6.600;2023-02-15T04:07:15;3.20;99.90
51837;DHT22;38941;53.254;6.600;2023-02-15T04:09:17;1.50;99.90
51837;DHT22;38941;53.254;6.600;2023-02-15T04:11:39;1.40;99.90
51837;DHT22;38941;53.254;6.600;2023-02-15T04:13:47;1.40;99.90
51837;DHT22;38941;53.254;6.600;2023-02-15T04:16:03;2.30;99.90
51837;DHT22;38941;53.254;6.600;2023-02-15T04:18:04;1.30;99.90
51837;DHT22;38941;53.254;6.600;2023-02-15T04:20:24;-0.80;99.90
51837;DHT22;38941;53.254;6.600;2023-02-15T04:22:44;2.80;99.90
51837;DHT22;38941;53.254;6.600;2023-02-15T04:25:14;2.40;99.90
51837;DHT22;38941;53.254;6.600;2023-02-15T04:27:16;1.20;99.90
51837;DHT22;38941;53.254;6.600;2023-02-15T04:29:24;1.40;99.90
51837;DHT22;38941;53.254;6.600;2023-02-15T04:31:26;2.80;99.90
51837;DHT22;38941;53.254;6.600;2023-02-15T04:33:42;2.00;99.90
51837;DHT22;38941;53.254;6.600;2023-02-15T04:35:44;1.50;99.90
51837;DHT22;38941;53.254;6.600;2023-02-15T04:37:54;2.80;99.90
51837;DHT22;38941;53.254;6.600;2023-02-15T04:40:03;2.80;99.90
51837;DHT22;38941;53.254;6.600;2023-02-15T04:42:05;1.50;99.90
51837;DHT22;38941;53.254;6.600;2023-02-15T04:44:12;-0.20;99.90
51837;DHT22;38941;53.254;6.600;2023-02-15T04:46:32;1.20;99.90
51837;DHT22;38941;53.254;6.600;2023-02-15T04:48:34;1.40;99.90
51837;DHT22;38941;53.254;6.600;2023-02-15T04:50:36;0.90;99.90
51837;DHT22;38941;53.254;6.600;2023-02-15T04:52:38;2.80;99.90
51837;DHT22;38941;53.254;6.600;2023-02-15T04:54:47;0.90;99.90
51837;DHT22;38941;53.254;6.600;2023-02-15T04:56:50;1.40;99.90
51837;DHT22;38941;53.254;6.600;2023-02-15T04:59:02;2.90;99.90
51837;DHT22;38941;53.254;6.600;2023-02-15T05:01:22;1.60;99.90
51837;DHT22;38941;53.254;6.600;2023-02-15T05:03:24;1.30;99.90
51837;DHT22;38941;53.254;6.600;2023-02-15T05:05:25;2.30;99.90
51837;DHT22;38941;53.254;6.600;2023-02-15T05:07:32;1.30;99.90
51837;DHT22;38941;53.254;6.600;2023-02-15T05:09:33;1.40;99.90
51837;DHT22;38941;53.254;6.600;2023-02-15T05:11:47;2.00;99.90
51837;DHT22;38941;53.254;6.600;2023-02-15T05:14:00;1.40;99.90
51837;DHT22;38941;53.254;6.600;2023-02-15T05:16:03;2.80;99.90
51837;DHT22;38941;53.254;6.600;2023-02-15T05:18:19;1.30;99.90
51837;DHT22;38941;53.254;6.600;2023-02-15T05:20:40;3.40;99.90
51837;DHT22;38941;53.254;6.600;2023-02-15T05:25:57;1.10;99.90
51837;DHT22;38941;53.254;6.600;2023-02-15T05:28:18;1.80;99.90
51837;DHT22;38941;53.254;6.600;2023-02-15T05:30:30;1.30;99.90
51837;DHT22;38941;53.254;6.600;2023-02-15T05:32:33;1.90;99.90
51837;DHT22;38941;53.254;6.600;2023-02-15T05:34:35;-0.40;99.90
51837;DHT22;38941;53.254;6.600;2023-02-15T05:36:43;1.50;99.90
51837;DHT22;38941;53.254;6.600;2023-02-15T05:41:22;1.30;99.90
51837;DHT22;38941;53.254;6.600;2023-02-15T05:43:25;3.30;99.90
51837;DHT22;38941;53.254;6.600;2023-02-15T05:45:26;1.60;99.90
51837;DHT22;38941;53.254;6.600;2023-02-15T05:47:28;1.80;99.90
51837;DHT22;38941;53.254;6.600;2023-02-15T05:49:30;1.20;99.90
51837;DHT22;38941;53.254;6.600;2023-02-15T05:51:31;1.20;99.90
51837;DHT22;38941;53.254;6.600;2023-02-15T05:53:40;1.70;99.90
51837;DHT22;38941;53.254;6.600;2023-02-15T05:55:43;1.20;99.90
51837;DHT22;38941;53.254;6.600;2023-02-15T05:57:45;1.70;99.90
51837;DHT22;38941;53.254;6.600;2023-02-15T05:59:47;1.30;99.90
51837;DHT22;38941;53.254;6.600;2023-02-15T06:01:51;1.70;99.90
51837;DHT22;38941;53.254;6.600;2023-02-15T06:03:54;2.20;99.90
51837;DHT22;38941;53.254;6.600;2023-02-15T06:05:57;2.40;99.90
51837;DHT22;38941;53.254;6.600;2023-02-15T06:08:04;1.40;99.90
51837;DHT22;38941;53.254;6.600;2023-02-15T06:10:06;1.50;99.90
51837;DHT22;38941;53.254;6.600;2023-02-15T06:12:08;1.20;99.90
51837;DHT22;38941;53.254;6.600;2023-02-15T06:14:12;1.20;99.90
51837;DHT22;38941;53.254;6.600;2023-02-15T06:16:24;3.30;99.90
51837;DHT22;38941;53.254;6.600;2023-02-15T06:18:26;1.30;99.90
51837;DHT22;38941;53.254;6.600;2023-02-15T06:20:28;1.20;99.90
51837;DHT22;38941;53.254;6.600;2023-02-15T06:22:30;1.30;99.90
51837;DHT22;38941;53.254;6.600;2023-02-15T06:24:32;1.30;99.90
51837;DHT22;38941;53.254;6.600;2023-02-15T06:26:39;1.70;99.90
51837;DHT22;38941;53.254;6.600;2023-02-15T06:28:42;1.20;99.90
51837;DHT22;38941;53.254;6.600;2023-02-15T06:30:44;0.70;99.90
51837;DHT22;38941;53.254;6.600;2023-02-15T06:32:45;1.10;99.90
51837;DHT22;38941;53.254;6.600;2023-02-15T06:34:47;1.40;99.90
51837;DHT22;38941;53.254;6.600;2023-02-15T06:36:49;3.90;99.90
51837;DHT22;38941;53.254;6.600;2023-02-15T06:38:52;-0.60;99.90
51837;DHT22;38941;53.254;6.600;2023-02-15T06:40:54;1.80;99.90
51837;DHT22;38941;53.254;6.600;2023-02-15T06:42:56;0.60;99.90
51837;DHT22;38941;53.254;6.600;2023-02-15T06:45:02;1.30;99.90
51837;DHT22;38941;53.254;6.600;2023-02-15T06:47:04;2.00;99.90
51837;DHT22;38941;53.254;6.600;2023-02-15T06:49:05;3.50;99.90
51837;DHT22;38941;53.254;6.600;2023-02-15T06:51:07;2.10;99.90
51837;DHT22;38941;53.254;6.600;2023-02-15T06:53:09;1.20;99.90
51837;DHT22;38941;53.254;6.600;2023-02-15T06:55:12;1.50;99.90
51837;DHT22;38941;53.254;6.600;2023-02-15T06:57:13;2.30;99.90
51837;DHT22;38941;53.254;6.600;2023-02-15T06:59:16;1.30;99.90
51837;DHT22;38941;53.254;6.600;2023-02-15T07:01:18;2.20;99.90
51837;DHT22;38941;53.254;6.600;2023-02-15T07:03:20;1.70;99.90
51837;DHT22;38941;53.254;6.600;2023-02-15T07:05:26;-0.20;99.90
51837;DHT22;38941;53.254;6.600;2023-02-15T07:07:37;1.10;99.90
51837;DHT22;38941;53.254;6.600;2023-02-15T07:09:39;2.60;99.90
51837;DHT22;38941;53.254;6.600;2023-02-15T07:11:40;1.20;99.90
51837;DHT22;38941;53.254;6.600;2023-02-15T07:13:59;1.90;99.90
51837;DHT22;38941;53.254;6.600;2023-02-15T07:16:01;2.10;99.90
51837;DHT22;38941;53.254;6.600;2023-02-15T07:18:02;2.50;99.90
51837;DHT22;38941;53.254;6.600;2023-02-15T07:20:11;0.90;99.90
51837;DHT22;38941;53.254;6.600;2023-02-15T07:22:12;0.50;99.90
51837;DHT22;38941;53.254;6.600;2023-02-15T07:24:14;0.60;99.90
51837;DHT22;38941;53.254;6.600;2023-02-15T07:26:16;2.60;99.90
51837;DHT22;38941;53.254;6.600;2023-02-15T07:28:19;1.50;99.90
51837;DHT22;38941;53.254;6.600;2023-02-15T07:30:21;2.30;99.90
51837;DHT22;38941;53.254;6.600;2023-02-15T07:32:22;1.70;99.90
51837;DHT22;38941;53.254;6.600;2023-02-15T07:34:30;1.90;99.90
51837;DHT22;38941;53.254;6.600;2023-02-15T07:36:33;1.90;99.90
51837;DHT22;38941;53.254;6.600;2023-02-15T07:38:36;4.80;99.90
51837;DHT22;38941;53.254;6.600;2023-02-15T07:40:38;2.30;99.90
51837;DHT22;38941;53.254;6.600;2023-02-15T07:42:40;3.10;99.90
51837;DHT22;38941;53.254;6.600;2023-02-15T07:44:52;2.80;99.90
51837;DHT22;38941;53.254;6.600;2023-02-15T07:46:53;2.80;99.90
51837;DHT22;38941;53.254;6.600;2023-02-15T07:48:55;3.40;99.90
51837;DHT22;38941;53.254;6.600;2023-02-15T07:51:02;3.20;99.90
51837;DHT22;38941;53.254;6.600;2023-02-15T07:53:04;3.10;99.90
51837;DHT22;38941;53.254;6.600;2023-02-15T07:55:06;2.70;99.90
51837;DHT22;38941;53.254;6.600;2023-02-15T07:57:09;2.50;99.90
51837;DHT22;38941;53.254;6.600;2023-02-15T07:59:23;2.40;99.90
51837;DHT22;38941;53.254;6.600;2023-02-15T08:01:27;3.40;99.90
51837;DHT22;38941;53.254;6.600;2023-02-15T08:03:35;2.50;99.90
51837;DHT22;38941;53.254;6.600;2023-02-15T08:05:36;2.70;99.90
51837;DHT22;38941;53.254;6.600;2023-02-15T08:07:43;2.60;99.90
51837;DHT22;38941;53.254;6.600;2023-02-15T08:09:45;2.70;99.90
51837;DHT22;38941;53.254;6.600;2023-02-15T08:11:47;2.60;99.90
51837;DHT22;38941;53.254;6.600;2023-02-15T08:13:53;3.50;99.90
51837;DHT22;38941;53.254;6.600;2023-02-15T08:15:56;3.00;99.90
51837;DHT22;38941;53.254;6.600;2023-02-15T08:17:57;3.00;99.90
51837;DHT22;38941;53.254;6.600;2023-02-15T08:22:31;3.60;99.90
51837;DHT22;38941;53.254;6.600;2023-02-15T08:24:36;3.90;99.90
51837;DHT22;38941;53.254;6.600;2023-02-15T08:26:48;3.80;99.90
51837;DHT22;38941;53.254;6.600;2023-02-15T08:28:51;4.10;99.90
51837;DHT22;38941;53.254;6.600;2023-02-15T08:30:52;4.10;99.90
51837;DHT22;38941;53.254;6.600;2023-02-15T08:32:54;3.90;99.90
51837;DHT22;38941;53.254;6.600;2023-02-15T08:35:06;4.40;99.90
51837;DHT22;38941;53.254;6.600;2023-02-15T08:37:09;4.50;99.90
51837;DHT22;38941;53.254;6.600;2023-02-15T08:42:02;4.50;99.90
51837;DHT22;38941;53.254;6.600;2023-02-15T08:44:20;4.50;99.90
51837;DHT22;38941;53.254;6.600;2023-02-15T08:46:23;4.20;99.90
51837;DHT22;38941;53.254;6.600;2023-02-15T08:48:30;5.70;99.90
51837;DHT22;38941;53.254;6.600;2023-02-15T08:50:38;5.60;99.90
51837;DHT22;38941;53.254;6.600;2023-02-15T08:52:41;4.50;99.90
51837;DHT22;38941;53.254;6.600;2023-02-15T08:54:43;7.30;99.90
51837;DHT22;38941;53.254;6.600;2023-02-15T08:56:46;8.10;99.90
51837;DHT22;38941;53.254;6.600;2023-02-15T08:58:47;5.90;99.90
51837;DHT22;38941;53.254;6.600;2023-02-15T09:00:49;7.90;99.90
51837;DHT22;38941;53.254;6.600;2023-02-15T09:02:50;7.20;99.90
51837;DHT22;38941;53.254;6.600;2023-02-15T09:04:51;7.50;99.90
51837;DHT22;38941;53.254;6.600;2023-02-15T09:06:53;8.20;99.90
51837;DHT22;38941;53.254;6.600;2023-02-15T09:08:55;9.10;99.90
51837;DHT22;38941;53.254;6.600;2023-02-15T09:11:16;8.90;99.90
51837;DHT22;38941;53.254;6.600;2023-02-15T09:13:22;9.50;99.90
51837;DHT22;38941;53.254;6.600;2023-02-15T09:15:23;9.80;99.90
51837;DHT22;38941;53.254;6.600;2023-02-15T09:17:25;8.70;99.90
51837;DHT22;38941;53.254;6.600;2023-02-15T09:19:26;9.80;99.90
51837;DHT22;38941;53.254;6.600;2023-02-15T09:21:28;9.70;99.90
51837;DHT22;38941;53.254;6.600;2023-02-15T09:23:29;9.90;99.90
51837;DHT22;38941;53.254;6.600;2023-02-15T09:25:30;10.10;99.90
51837;DHT22;38941;53.254;6.600;2023-02-15T09:27:31;9.70;99.90
51837;DHT22;38941;53.254;6.600;2023-02-15T09:29:32;9.80;99.90
51837;DHT22;38941;53.254;6.600;2023-02-15T09:31:37;9.30;99.90
51837;DHT22;38941;53.254;6.600;2023-02-15T09:33:39;10.10;99.90
51837;DHT22;38941;53.254;6.600;2023-02-15T09:35:40;10.20;99.90
51837;DHT22;38941;53.254;6.600;2023-02-15T09:37:41;10.70;99.90
51837;DHT22;38941;53.254;6.600;2023-02-15T09:39:43;10.90;99.90
51837;DHT22;38941;53.254;6.600;2023-02-15T09:48:39;12.10;99.90
51837;DHT22;38941;53.254;6.600;2023-02-15T09:51:00;12.50;99.90
51837;DHT22;38941;53.254;6.600;2023-02-15T09:59:42;13.20;99.90
51837;DHT22;38941;53.254;6.600;2023-02-15T10:11:16;13.10;99.90
51837;DHT22;38941;53.254;6.600;2023-02-15T10:13:53;12.80;99.90
51837;DHT22;38941;53.254;6.600;2023-02-15T10:16:21;12.60;99.90
51837;DHT22;38941;53.254;6.600;2023-02-15T10:18:42;12.50;99.90
51837;DHT22;38941;53.254;6.600;2023-02-15T10:27:47;11.90;99.90
51837;DHT22;38941;53.254;6.600;2023-02-15T10:32:25;11.70;99.90
51837;DHT22;38941;53.254;6.600;2023-02-15T10:34:39;11.40;99.90
51837;DHT22;38941;53.254;6.600;2023-02-15T10:37:05;11.30;99.90
51837;DHT22;38941;53.254;6.600;2023-02-15T10:54:59;12.30;99.90
51837;DHT22;38941;53.254;6.600;2023-02-15T10:57:32;12.50;99.90
51837;DHT22;38941;53.254;6.600;2023-02-15T10:59:56;12.50;99.90
51837;DHT22;38941;53.254;6.600;2023-02-15T11:02:14;12.50;99.90
51837;DHT22;38941;53.254;6.600;2023-02-15T11:04:41;12.60;99.90
51837;DHT22;38941;53.254;6.600;2023-02-15T11:06:58;12.90;99.90
51837;DHT22;38941;53.254;6.600;2023-02-15T11:09:08;13.10;99.90
51837;DHT22;38941;53.254;6.600;2023-02-15T11:11:15;13.30;99.90
51837;DHT22;38941;53.254;6.600;2023-02-15T11:13:18;13.10;99.90
51837;DHT22;38941;53.254;6.600;2023-02-15T11:17:43;12.90;99.90
51837;DHT22;38941;53.254;6.600;2023-02-15T11:19:55;12.80;99.90
51837;DHT22;38941;53.254;6.600;2023-02-15T11:22:03;12.80;99.90
51837;DHT22;38941;53.254;6.600;2023-02-15T11:24:12;12.70;99.90
51837;DHT22;38941;53.254;6.600;2023-02-15T11:26:27;12.60;99.90
51837;DHT22;38941;53.254;6.600;2023-02-15T11:28:45;12.80;99.90
51837;DHT22;38941;53.254;6.600;2023-02-15T11:30:51;13.00;99.90
51837;DHT22;38941;53.254;6.600;2023-02-15T11:32:57;13.10;99.90
51837;DHT22;38941;53.254;6.600;2023-02-15T11:37:15;13.00;99.90
51837;DHT22;38941;53.254;6.600;2023-02-15T11:39:18;13.00;99.90
51837;DHT22;38941;53.254;6.600;2023-02-15T11:41:24;13.00;99.90
51837;DHT22;38941;53.254;6.600;2023-02-15T11:43:38;13.00;99.90
51837;DHT22;38941;53.254;6.600;2023-02-15T11:45:42;12.90;99.90
51837;DHT22;38941;53.254;6.600;2023-02-15T11:47:43;12.80;99.90
51837;DHT22;38941;53.254;6.600;2023-02-15T11:49:45;12.90;99.90
51837;DHT22;38941;53.254;6.600;2023-02-15T11:51:46;13.00;99.90
51837;DHT22;38941;53.254;6.600;2023-02-15T11:53:48;12.90;99.90
51837;DHT22;38941;53.254;6.600;2023-02-15T11:55:49;12.80;99.90
51837;DHT22;38941;53.254;6.600;2023-02-15T11:58:23;12.80;99.90
51837;DHT22;38941;53.254;6.600;2023-02-15T12:02:26;13.10;99.90
51837;DHT22;38941;53.254;6.600;2023-02-15T12:04:36;13.30;99.80
51837;DHT22;38941;53.254;6.600;2023-02-15T12:06:51;13.50;99.20
51837;DHT22;38941;53.254;6.600;2023-02-15T12:11:37;13.90;98.30
51837;DHT22;38941;53.254;6.600;2023-02-15T12:14:14;14.00;97.70
51837;DHT22;38941;53.254;6.600;2023-02-15T12:16:16;14.20;97.80
51837;DHT22;38941;53.254;6.600;2023-02-15T12:18:38;14.20;98.40
51837;DHT22;38941;53.254;6.600;2023-02-15T12:20:39;14.20;97.20
51837;DHT22;38941;53.254;6.600;2023-02-15T12:22:53;14.40;97.70
51837;DHT22;38941;53.254;6.600;2023-02-15T12:24:59;14.60;97.40
51837;DHT22;38941;53.254;6.600;2023-02-15T12:27:18;14.80;96.90
51837;DHT22;38941;53.254;6.600;2023-02-15T12:29:19;15.00;95.20
51837;DHT22;38941;53.254;6.600;2023-02-15T12:33:41;15.40;96.10
51837;DHT22;38941;53.254;6.600;2023-02-15T12:35:46;15.20;93.80
51837;DHT22;38941;53.254;6.600;2023-02-15T12:40:28;15.00;93.00
51837;DHT22;38941;53.254;6.600;2023-02-15T12:42:41;14.90;94.60
51837;DHT22;38941;53.254;6.600;2023-02-15T12:45:03;14.90;93.30
51837;DHT22;38941;53.254;6.600;2023-02-15T12:47:20;14.90;92.80
51837;DHT22;38941;53.254;6.600;2023-02-15T12:49:22;15.00;94.30
51837;DHT22;38941;53.254;6.600;2023-02-15T12:51:23;15.20;94.30
51837;DHT22;38941;53.254;6.600;2023-02-15T12:53:33;15.50;94.30
51837;DHT22;38941;53.254;6.600;2023-02-15T12:55:34;15.70;92.50
51837;DHT22;38941;53.254;6.600;2023-02-15T12:57:34;15.70;93.50
51837;DHT22;38941;53.254;6.600;2023-02-15T12:59:35;15.80;93.60
51837;DHT22;38941;53.254;6.600;2023-02-15T13:01:38;15.90;92.90
51837;DHT22;38941;53.254;6.600;2023-02-15T13:03:59;15.30;92.60
51837;DHT22;38941;53.254;6.600;2023-02-15T13:06:01;15.90;90.70
51837;DHT22;38941;53.254;6.600;2023-02-15T13:08:13;15.80;92.40
51837;DHT22;38941;53.254;6.600;2023-02-15T13:10:27;15.70;92.10
51837;DHT22;38941;53.254;6.600;2023-02-15T13:12:30;15.60;91.90
51837;DHT22;38941;53.254;6.600;2023-02-15T13:14:32;15.40;91.90
51837;DHT22;38941;53.254;6.600;2023-02-15T13:16:36;15.30;92.30
51837;DHT22;38941;53.254;6.600;2023-02-15T13:18:45;15.10;92.20
51837;DHT22;38941;53.254;6.600;2023-02-15T13:20:48;15.00;92.00
51837;DHT22;38941;53.254;6.600;2023-02-15T13:22:52;14.90;92.40
51837;DHT22;38941;53.254;6.600;2023-02-15T13:25:04;14.90;92.50
51837;DHT22;38941;53.254;6.600;2023-02-15T13:27:31;14.60;92.00
51837;DHT22;38941;53.254;6.600;2023-02-15T13:29:36;14.50;92.00
51837;DHT22;38941;53.254;6.600;2023-02-15T13:31:38;14.40;92.40
51837;DHT22;38941;53.254;6.600;2023-02-15T13:33:44;14.50;92.70
51837;DHT22;38941;53.254;6.600;2023-02-15T13:35:56;14.50;92.50
51837;DHT22;38941;53.254;6.600;2023-02-15T13:38:19;14.70;92.50
51837;DHT22;38941;53.254;6.600;2023-02-15T13:42:28;14.90;92.40
51837;DHT22;38941;53.254;6.600;2023-02-15T13:58:17;14.30;92.10
51837;DHT22;38941;53.254;6.600;2023-02-15T14:09:53;14.00;92.10
51837;DHT22;38941;53.254;6.600;2023-02-15T14:16:15;13.80;92.00
51837;DHT22;38941;53.254;6.600;2023-02-15T14:18:35;13.70;91.90
51837;DHT22;38941;53.254;6.600;2023-02-15T14:25:43;13.40;91.80
51837;DHT22;38941;53.254;6.600;2023-02-15T14:28:14;13.40;91.70
51837;DHT22;38941;53.254;6.600;2023-02-15T14:30:24;13.40;92.00
51837;DHT22;38941;53.254;6.600;2023-02-15T14:34:46;13.70;92.00
51837;DHT22;38941;53.254;6.600;2023-02-15T14:36:50;13.70;92.00
51837;DHT22;38941;53.254;6.600;2023-02-15T14:44:20;14.00;91.50
51837;DHT22;38941;53.254;6.600;2023-02-15T14:49:13;14.20;90.50
51837;DHT22;38941;53.254;6.600;2023-02-15T14:53:49;14.20;91.20
51837;DHT22;38941;53.254;6.600;2023-02-15T14:56:05;14.40;91.40
51837;DHT22;38941;53.254;6.600;2023-02-15T14:58:12;14.30;91.00
51837;DHT22;38941;53.254;6.600;2023-02-15T15:00:48;14.30;91.10
51837;DHT22;38941;53.254;6.600;2023-02-15T15:02:51;14.30;90.60
51837;DHT22;38941;53.254;6.600;2023-02-15T15:09:25;14.20;91.20
51837;DHT22;38941;53.254;6.600;2023-02-15T15:23:49;13.40;91.90
51837;DHT22;38941;53.254;6.600;2023-02-15T15:26:20;12.90;92.00
51837;DHT22;38941;53.254;6.600;2023-02-15T15:35:05;12.60;92.60
51837;DHT22;38941;53.254;6.600;2023-02-15T15:42:09;12.40;92.60
51837;DHT22;38941;53.254;6.600;2023-02-15T15:49:21;12.20;93.00
51837;DHT22;38941;53.254;6.600;2023-02-15T15:51:29;12.20;93.20
51837;DHT22;38941;53.254;6.600;2023-02-15T15:53:37;12.10;93.20
51837;DHT22;38941;53.254;6.600;2023-02-15T15:55:40;12.00;93.20
51837;DHT22;38941;53.254;6.600;2023-02-15T15:57:43;12.00;93.30
51837;DHT22;38941;53.254;6.600;2023-02-15T15:59:46;11.80;93.60
51837;DHT22;38941;53.254;6.600;2023-02-15T16:01:47;11.80;93.50
51837;DHT22;38941;53.254;6.600;2023-02-15T16:03:50;11.70;93.40
51837;DHT22;38941;53.254;6.600;2023-02-15T16:05:51;11.70;93.60
51837;DHT22;38941;53.254;6.600;2023-02-15T16:07:55;11.60;93.70
51837;DHT22;38941;53.254;6.600;2023-02-15T16:10:03;11.60;93.80
51837;DHT22;38941;53.254;6.600;2023-02-15T16:12:05;11.60;93.70
51837;DHT22;38941;53.254;6.600;2023-02-15T16:14:32;11.50;94.00
51837;DHT22;38941;53.254;6.600;2023-02-15T16:16:35;11.40;94.20
51837;DHT22;38941;53.254;6.600;2023-02-15T16:18:38;11.30;94.40
51837;DHT22;38941;53.254;6.600;2023-02-15T16:20:54;11.30;94.50
51837;DHT22;38941;53.254;6.600;2023-02-15T16:28:11;11.10;94.90
51837;DHT22;38941;53.254;6.600;2023-02-15T16:30:33;11.00;95.00
51837;DHT22;38941;53.254;6.600;2023-02-15T16:32:34;10.90;95.00
51837;DHT22;38941;53.254;6.600;2023-02-15T16:34:39;10.80;95.20
51837;DHT22;38941;53.254;6.600;2023-02-15T16:36:50;12.90;96.00
51837;DHT22;38941;53.254;6.600;2023-02-15T16:40:54;10.80;96.50
51837;DHT22;38941;53.254;6.600;2023-02-15T16:43:02;10.60;96.00
51837;DHT22;38941;53.254;6.600;2023-02-15T16:45:12;10.90;96.30
51837;DHT22;38941;53.254;6.600;2023-02-15T16:47:26;10.90;96.10
51837;DHT22;38941;53.254;6.600;2023-02-15T16:49:29;10.40;96.20
51837;DHT22;38941;53.254;6.600;2023-02-15T16:51:33;10.50;96.80
51837;DHT22;38941;53.254;6.600;2023-02-15T16:53:35;10.50;96.80
51837;DHT22;38941;53.254;6.600;2023-02-15T16:55:41;10.30;96.90
51837;DHT22;38941;53.254;6.600;2023-02-15T16:57:43;10.30;97.20
51837;DHT22;38941;53.254;6.600;2023-02-15T16:59:46;10.30;97.70
51837;DHT22;38941;53.254;6.600;2023-02-15T17:01:47;10.30;97.40
51837;DHT22;38941;53.254;6.600;2023-02-15T17:03:52;10.20;98.10
51837;DHT22;38941;53.254;6.600;2023-02-15T17:06:22;10.30;97.50